sensor_id;sensor_type;location;lat;lon;timestamp;P1;durP1;ratioP1;P2;durP2;ratioP2
12038;SDS011;6080;48.818;9.526;2023-03-16T04:01:04;26.33;;;17.67;;
12038;SDS011;6080;48.818;9.526;2023-03-16T04:03:30;21.47;;;17.10;;
12038;SDS011;6080;48.818;9.526;2023-03-16T04:05:56;26.17;;;18.30;;
12038;SDS011;6080;48.818;9.526;2023-03-16T04:08:22;21.77;;;17.20;;
12038;SDS011;6080;48.818;9.526;2023-03-16T04:10:48;25.60;;;16.73;;
12038;SDS011;6080;48.818;9.526;2023-03-16T04:13:13;24.67;;;18.20;;
12038;SDS011;6080;48.818;9.526;2023-03-16T04:15:39;23.97;;;17.43;;
12038;SDS011;6080;48.818;9.526;2023-03-16T04:18:05;23.37;;;16.93;;
12038;SDS011;6080;48.818;9.526;2023-03-16T04:20:31;25.13;;;17.37;;
12038;SDS011;6080;48.818;9.526;2023-03-16T04:22:56;20.27;;;15.90;;
12038;SDS011;6080;48.818;9.526;2023-03-16T04:25:23;21.67;;;16.70;;
12038;SDS011;6080;48.818;9.526;2023-03-16T04:27:54;22.23;;;16.97;;
12038;SDS011;6080;48.818;9.526;2023-03-16T04:30:21;24.40;;;17.27;;
12038;SDS011;6080;48.818;9.526;2023-03-16T04:32:50;20.97;;;16.97;;
12038;SDS011;6080;48.818;9.526;2023-03-16T04:35:16;20.97;;;16.73;;
12038;SDS011;6080;48.818;9.526;2023-03-16T04:37:42;20.97;;;16.27;;
12038;SDS011;6080;48.818;9.526;2023-03-16T04:40:08;23.23;;;17.60;;
12038;SDS011;6080;48.818;9.526;2023-03-16T04:42:41;20.23;;;16.17;;
12038;SDS011;6080;48.818;9.526;2023-03-16T04:45:08;22.87;;;16.43;;
12038;SDS011;6080;48.818;9.526;2023-03-16T04:47:34;23.53;;;17.30;;
12038;SDS011;6080;48.818;9.526;2023-03-16T04:50:02;23.17;;;16.40;;
12038;SDS011;6080;48.818;9.526;2023-03-16T04:52:28;30.83;;;16.40;;
12038;SDS011;6080;48.818;9.526;2023-03-16T04:54:54;20.23;;;16.87;;
12038;SDS011;6080;48.818;9.526;2023-03-16T04:57:20;26.30;;;19.57;;
12038;SDS011;6080;48.818;9.526;2023-03-16T04:59:46;21.20;;;16.80;;
12038;SDS011;6080;48.818;9.526;2023-03-16T05:02:12;23.43;;;16.90;;
12038;SDS011;6080;48.818;9.526;2023-03-16T05:04:38;22.60;;;16.20;;
12038;SDS011;6080;48.818;9.526;2023-03-16T05:07:04;27.17;;;18.77;;
12038;SDS011;6080;48.818;9.526;2023-03-16T05:09:30;24.23;;;18.60;;
12038;SDS011;6080;48.818;9.526;2023-03-16T05:11:56;23.93;;;17.87;;
12038;SDS011;6080;48.818;9.526;2023-03-16T05:14:22;21.93;;;16.37;;
12038;SDS011;6080;48.818;9.526;2023-03-16T05:16:48;23.43;;;18.70;;
12038;SDS011;6080;48.818;9.526;2023-03-16T05:19:14;22.43;;;16.47;;
12038;SDS011;6080;48.818;9.526;2023-03-16T05:21:39;22.60;;;17.87;;
12038;SDS011;6080;48.818;9.526;2023-03-16T05:24:05;24.20;;;18.30;;
12038;SDS011;6080;48.818;9.526;2023-03-16T05:26:31;24.90;;;18.53;;
12038;SDS011;6080;48.818;9.526;2023-03-16T05:28:58;24.67;;;18.23;;
12038;SDS011;6080;48.818;9.526;2023-03-16T05:31:24;20.00;;;16.90;;
12038;SDS011;6080;48.818;9.526;2023-03-16T05:33:56;24.80;;;17.90;;
12038;SDS011;6080;48.818;9.526;2023-03-16T05:36:22;21.97;;;17.03;;
12038;SDS011;6080;48.818;9.526;2023-03-16T05:38:49;24.57;;;18.70;;
12038;SDS011;6080;48.818;9.526;2023-03-16T05:41:15;28.07;;;19.43;;
12038;SDS011;6080;48.818;9.526;2023-03-16T05:43:45;26.10;;;21.53;;
12038;SDS011;6080;48.818;9.526;2023-03-16T05:46:11;25.13;;;20.37;;
12038;SDS011;6080;48.818;9.526;2023-03-16T05:48:38;23.77;;;18.73;;
12038;SDS011;6080;48.818;9.526;2023-03-16T05:51:04;22.50;;;17.40;;
12038;SDS011;6080;48.818;9.526;2023-03-16T05:53:30;24.73;;;17.50;;
12038;SDS011;6080;48.818;9.526;2023-03-16T05:55:57;23.03;;;18.93;;
12038;SDS011;6080;48.818;9.526;2023-03-16T05:58:23;24.67;;;18.37;;
12038;SDS011;6080;48.818;9.526;2023-03-16T06:00:49;22.73;;;17.33;;
12038;SDS011;6080;48.818;9.526;2023-03-16T06:03:15;25.67;;;18.40;;
12038;SDS011;6080;48.818;9.526;2023-03-16T06:05:41;26.30;;;19.53;;
12038;SDS011;6080;48.818;9.526;2023-03-16T06:08:07;25.17;;;18.83;;
12038;SDS011;6080;48.818;9.526;2023-03-16T06:10:34;26.73;;;19.23;;
12038;SDS011;6080;48.818;9.526;2023-03-16T06:13:00;30.20;;;20.70;;
12038;SDS011;6080;48.818;9.526;2023-03-16T06:15:26;23.37;;;19.30;;
12038;SDS011;6080;48.818;9.526;2023-03-16T06:17:54;25.37;;;19.50;;
12038;SDS011;6080;48.818;9.526;2023-03-16T06:20:20;28.13;;;20.60;;
12038;SDS011;6080;48.818;9.526;2023-03-16T06:22:46;26.83;;;19.47;;
12038;SDS011;6080;48.818;9.526;2023-03-16T06:25:12;28.27;;;19.00;;
12038;SDS011;6080;48.818;9.526;2023-03-16T06:27:38;22.67;;;16.43;;
12038;SDS011;6080;48.818;9.526;2023-03-16T06:30:05;27.40;;;19.33;;
12038;SDS011;6080;48.818;9.526;2023-03-16T06:32:33;28.30;;;20.40;;
12038;SDS011;6080;48.818;9.526;2023-03-16T06:35:00;25.87;;;18.60;;
12038;SDS011;6080;48.818;9.526;2023-03-16T06:37:27;25.70;;;18.67;;
12038;SDS011;6080;48.818;9.526;2023-03-16T06:39:54;21.93;;;17.57;;
12038;SDS011;6080;48.818;9.526;2023-03-16T06:42:20;23.77;;;18.07;;
12038;SDS011;6080;48.818;9.526;2023-03-16T06:44:46;24.83;;;18.47;;
12038;SDS011;6080;48.818;9.526;2023-03-16T06:47:12;24.70;;;21.23;;
12038;SDS011;6080;48.818;9.526;2023-03-16T06:49:38;22.43;;;18.60;;
12038;SDS011;6080;48.818;9.526;2023-03-16T06:52:04;29.63;;;21.17;;
12038;SDS011;6080;48.818;9.526;2023-03-16T06:54:29;51.33;;;46.97;;
12038;SDS011;6080;48.818;9.526;2023-03-16T06:56:58;37.60;;;33.67;;
12038;SDS011;6080;48.818;9.526;2023-03-16T06:59:24;34.60;;;26.27;;
12038;SDS011;6080;48.818;9.526;2023-03-16T07:01:50;41.67;;;37.40;;
12038;SDS011;6080;48.818;9.526;2023-03-16T07:04:15;37.67;;;33.60;;
12038;SDS011;6080;48.818;9.526;2023-03-16T07:06:41;35.27;;;31.77;;
12038;SDS011;6080;48.818;9.526;2023-03-16T07:09:07;48.23;;;43.97;;
12038;SDS011;6080;48.818;9.526;2023-03-16T07:11:33;29.87;;;23.60;;
12038;SDS011;6080;48.818;9.526;2023-03-16T07:13:59;31.53;;;28.80;;
12038;SDS011;6080;48.818;9.526;2023-03-16T07:16:25;18.90;;;16.70;;
12038;SDS011;6080;48.818;9.526;2023-03-16T07:18:51;18.70;;;16.80;;
12038;SDS011;6080;48.818;9.526;2023-03-16T07:21:17;21.63;;;19.23;;
12038;SDS011;6080;48.818;9.526;2023-03-16T07:23:43;17.60;;;15.93;;
12038;SDS011;6080;48.818;9.526;2023-03-16T07:26:09;23.43;;;21.53;;
12038;SDS011;6080;48.818;9.526;2023-03-16T07:28:36;15.37;;;13.87;;
12038;SDS011;6080;48.818;9.526;2023-03-16T07:31:03;15.87;;;13.50;;
12038;SDS011;6080;48.818;9.526;2023-03-16T07:33:32;15.43;;;12.67;;
12038;SDS011;6080;48.818;9.526;2023-03-16T07:35:58;17.93;;;16.23;;
12038;SDS011;6080;48.818;9.526;2023-03-16T07:38:28;14.73;;;13.23;;
12038;SDS011;6080;48.818;9.526;2023-03-16T07:40:56;16.20;;;14.60;;
12038;SDS011;6080;48.818;9.526;2023-03-16T07:43:23;10.27;;;9.23;;
12038;SDS011;6080;48.818;9.526;2023-03-16T07:45:49;21.60;;;14.53;;
12038;SDS011;6080;48.818;9.526;2023-03-16T07:48:16;15.83;;;14.23;;
12038;SDS011;6080;48.818;9.526;2023-03-16T07:50:42;12.43;;;10.93;;
12038;SDS011;6080;48.818;9.526;2023-03-16T07:53:08;13.63;;;12.20;;
12038;SDS011;6080;48.818;9.526;2023-03-16T07:55:35;14.60;;;11.93;;
12038;SDS011;6080;48.818;9.526;2023-03-16T07:58:01;14.07;;;12.67;;
12038;SDS011;6080;48.818;9.526;2023-03-16T08:00:29;11.00;;;10.00;;
12038;SDS011;6080;48.818;9.526;2023-03-16T08:02:54;13.67;;;11.17;;
12038;SDS011;6080;48.818;9.526;2023-03-16T08:05:21;13.63;;;12.07;;
12038;SDS011;6080;48.818;9.526;2023-03-16T08:07:47;12.33;;;10.93;;
12038;SDS011;6080;48.818;9.526;2023-03-16T08:10:13;13.40;;;12.10;;
12038;SDS011;6080;48.818;9.526;2023-03-16T08:12:39;15.37;;;12.10;;
12038;SDS011;6080;48.818;9.526;2023-03-16T08:15:06;13.20;;;11.93;;
12038;SDS011;6080;48.818;9.526;2023-03-16T08:17:32;14.17;;;10.20;;
12038;SDS011;6080;48.818;9.526;2023-03-16T08:19:58;13.73;;;12.43;;
12038;SDS011;6080;48.818;9.526;2023-03-16T08:22:24;18.73;;;11.53;;
12038;SDS011;6080;48.818;9.526;2023-03-16T08:24:50;10.50;;;9.40;;
12038;SDS011;6080;48.818;9.526;2023-03-16T08:27:16;9.67;;;8.77;;
12038;SDS011;6080;48.818;9.526;2023-03-16T08:29:45;13.80;;;12.50;;
12038;SDS011;6080;48.818;9.526;2023-03-16T08:32:11;13.90;;;12.67;;
12038;SDS011;6080;48.818;9.526;2023-03-16T08:34:36;15.27;;;13.30;;
12038;SDS011;6080;48.818;9.526;2023-03-16T08:37:04;17.60;;;16.00;;
12038;SDS011;6080;48.818;9.526;2023-03-16T08:39:31;19.70;;;18.00;;
12038;SDS011;6080;48.818;9.526;2023-03-16T08:41:57;25.57;;;23.47;;
12038;SDS011;6080;48.818;9.526;2023-03-16T08:44:23;24.23;;;22.23;;
12038;SDS011;6080;48.818;9.526;2023-03-16T08:46:50;19.60;;;18.20;;
12038;SDS011;6080;48.818;9.526;2023-03-16T08:49:16;10.53;;;9.53;;
12038;SDS011;6080;48.818;9.526;2023-03-16T08:51:45;10.67;;;9.67;;
12038;SDS011;6080;48.818;9.526;2023-03-16T08:54:10;11.20;;;9.27;;
12038;SDS011;6080;48.818;9.526;2023-03-16T08:56:36;12.27;;;11.07;;
12038;SDS011;6080;48.818;9.526;2023-03-16T08:59:02;11.97;;;10.83;;
12038;SDS011;6080;48.818;9.526;2023-03-16T09:01:28;12.70;;;11.40;;
12038;SDS011;6080;48.818;9.526;2023-03-16T09:03:53;7.20;;;6.57;;
12038;SDS011;6080;48.818;9.526;2023-03-16T09:06:19;7.13;;;6.00;;
12038;SDS011;6080;48.818;9.526;2023-03-16T09:08:46;9.30;;;8.40;;
12038;SDS011;6080;48.818;9.526;2023-03-16T09:11:13;8.70;;;7.80;;
12038;SDS011;6080;48.818;9.526;2023-03-16T09:13:41;10.57;;;8.23;;
12038;SDS011;6080;48.818;9.526;2023-03-16T09:16:09;7.03;;;6.43;;
12038;SDS011;6080;48.818;9.526;2023-03-16T09:18:36;8.80;;;7.93;;
12038;SDS011;6080;48.818;9.526;2023-03-16T09:21:04;8.47;;;7.63;;
12038;SDS011;6080;48.818;9.526;2023-03-16T09:23:31;9.80;;;8.97;;
12038;SDS011;6080;48.818;9.526;2023-03-16T09:25:59;12.07;;;10.93;;
12038;SDS011;6080;48.818;9.526;2023-03-16T09:28:27;13.93;;;12.93;;
12038;SDS011;6080;48.818;9.526;2023-03-16T09:30:54;15.27;;;13.87;;
12038;SDS011;6080;48.818;9.526;2023-03-16T09:33:22;13.77;;;12.57;;
12038;SDS011;6080;48.818;9.526;2023-03-16T09:35:48;13.13;;;12.30;;
12038;SDS011;6080;48.818;9.526;2023-03-16T09:38:16;14.97;;;13.97;;
12038;SDS011;6080;48.818;9.526;2023-03-16T09:40:43;13.97;;;12.93;;
12038;SDS011;6080;48.818;9.526;2023-03-16T09:43:17;9.90;;;9.00;;
12038;SDS011;6080;48.818;9.526;2023-03-16T09:48:33;9.43;;;8.50;;
12038;SDS011;6080;48.818;9.526;2023-03-16T09:51:02;8.63;;;7.87;;
12038;SDS011;6080;48.818;9.526;2023-03-16T09:53:38;7.90;;;7.20;;
12038;SDS011;6080;48.818;9.526;2023-03-16T09:59:46;9.70;;;8.53;;
12038;SDS011;6080;48.818;9.526;2023-03-16T10:06:12;6.77;;;6.33;;
12038;SDS011;6080;48.818;9.526;2023-03-16T10:08:39;10.47;;;7.47;;
12038;SDS011;6080;48.818;9.526;2023-03-16T10:11:22;9.73;;;8.37;;
12038;SDS011;6080;48.818;9.526;2023-03-16T10:14:02;8.43;;;7.10;;
12038;SDS011;6080;48.818;9.526;2023-03-16T10:16:56;12.50;;;8.80;;
12038;SDS011;6080;48.818;9.526;2023-03-16T10:22:08;6.83;;;6.33;;
12038;SDS011;6080;48.818;9.526;2023-03-16T10:27:29;7.87;;;7.20;;
12038;SDS011;6080;48.818;9.526;2023-03-16T10:29:57;7.80;;;7.10;;
12038;SDS011;6080;48.818;9.526;2023-03-16T10:32:29;8.03;;;7.27;;
12038;SDS011;6080;48.818;9.526;2023-03-16T10:35:01;7.50;;;6.73;;
12038;SDS011;6080;48.818;9.526;2023-03-16T10:37:35;7.30;;;6.70;;
12038;SDS011;6080;48.818;9.526;2023-03-16T10:40:06;6.90;;;6.40;;
12038;SDS011;6080;48.818;9.526;2023-03-16T10:42:34;8.13;;;7.47;;
12038;SDS011;6080;48.818;9.526;2023-03-16T10:45:01;7.40;;;5.87;;
12038;SDS011;6080;48.818;9.526;2023-03-16T10:47:29;7.30;;;6.70;;
12038;SDS011;6080;48.818;9.526;2023-03-16T10:49:56;7.53;;;6.07;;
12038;SDS011;6080;48.818;9.526;2023-03-16T10:52:33;6.67;;;6.07;;
12038;SDS011;6080;48.818;9.526;2023-03-16T10:55:18;7.40;;;5.87;;
12038;SDS011;6080;48.818;9.526;2023-03-16T10:57:51;7.00;;;6.33;;
12038;SDS011;6080;48.818;9.526;2023-03-16T11:00:26;7.77;;;7.17;;
12038;SDS011;6080;48.818;9.526;2023-03-16T11:02:55;8.17;;;7.57;;
12038;SDS011;6080;48.818;9.526;2023-03-16T11:05:31;7.97;;;7.37;;
12038;SDS011;6080;48.818;9.526;2023-03-16T11:08:12;10.17;;;9.23;;
12038;SDS011;6080;48.818;9.526;2023-03-16T11:10:45;7.60;;;6.90;;
12038;SDS011;6080;48.818;9.526;2023-03-16T11:13:19;8.07;;;7.47;;
12038;SDS011;6080;48.818;9.526;2023-03-16T11:18:54;9.57;;;9.00;;
12038;SDS011;6080;48.818;9.526;2023-03-16T11:27:23;6.20;;;5.90;;
12038;SDS011;6080;48.818;9.526;2023-03-16T11:32:53;8.63;;;8.13;;
12038;SDS011;6080;48.818;9.526;2023-03-16T11:35:23;6.97;;;6.47;;
12038;SDS011;6080;48.818;9.526;2023-03-16T11:46:16;12.90;;;12.20;;
12038;SDS011;6080;48.818;9.526;2023-03-16T11:52:00;6.83;;;6.33;;
12038;SDS011;6080;48.818;9.526;2023-03-16T11:54:48;9.13;;;8.50;;
12038;SDS011;6080;48.818;9.526;2023-03-16T12:08:33;5.97;;;5.43;;
12038;SDS011;6080;48.818;9.526;2023-03-16T12:11:24;5.80;;;5.40;;
12038;SDS011;6080;48.818;9.526;2023-03-16T12:14:15;5.67;;;5.23;;
12038;SDS011;6080;48.818;9.526;2023-03-16T12:16:55;7.77;;;7.27;;
12038;SDS011;6080;48.818;9.526;2023-03-16T12:22:18;9.27;;;8.67;;
12038;SDS011;6080;48.818;9.526;2023-03-16T12:24:47;6.10;;;5.70;;
12038;SDS011;6080;48.818;9.526;2023-03-16T12:27:15;7.10;;;6.80;;
12038;SDS011;6080;48.818;9.526;2023-03-16T12:30:00;11.30;;;10.70;;
12038;SDS011;6080;48.818;9.526;2023-03-16T12:38:26;11.07;;;10.40;;
12038;SDS011;6080;48.818;9.526;2023-03-16T12:41:06;10.37;;;9.67;;
12038;SDS011;6080;48.818;9.526;2023-03-16T12:49:30;9.40;;;8.77;;
12038;SDS011;6080;48.818;9.526;2023-03-16T12:51:59;10.73;;;10.03;;
12038;SDS011;6080;48.818;9.526;2023-03-16T12:54:26;13.20;;;12.37;;
12038;SDS011;6080;48.818;9.526;2023-03-16T12:57:00;17.10;;;16.07;;
12038;SDS011;6080;48.818;9.526;2023-03-16T12:59:37;16.87;;;15.67;;
12038;SDS011;6080;48.818;9.526;2023-03-16T13:02:14;16.63;;;15.60;;
12038;SDS011;6080;48.818;9.526;2023-03-16T13:04:44;13.77;;;13.03;;
12038;SDS011;6080;48.818;9.526;2023-03-16T13:07:16;12.73;;;11.93;;
12038;SDS011;6080;48.818;9.526;2023-03-16T13:09:59;8.17;;;7.63;;
12038;SDS011;6080;48.818;9.526;2023-03-16T13:12:33;6.60;;;6.10;;
12038;SDS011;6080;48.818;9.526;2023-03-16T13:17:48;9.73;;;9.13;;
12038;SDS011;6080;48.818;9.526;2023-03-16T13:20:33;9.53;;;9.03;;
12038;SDS011;6080;48.818;9.526;2023-03-16T13:25:43;11.27;;;10.67;;
12038;SDS011;6080;48.818;9.526;2023-03-16T13:28:22;11.03;;;10.53;;
12038;SDS011;6080;48.818;9.526;2023-03-16T13:30:53;11.00;;;10.27;;
12038;SDS011;6080;48.818;9.526;2023-03-16T13:33:22;13.17;;;12.37;;
12038;SDS011;6080;48.818;9.526;2023-03-16T13:35:51;11.70;;;11.00;;
12038;SDS011;6080;48.818;9.526;2023-03-16T13:38:21;11.40;;;10.80;;
12038;SDS011;6080;48.818;9.526;2023-03-16T13:40:52;11.93;;;11.30;;
12038;SDS011;6080;48.818;9.526;2023-03-16T13:43:21;13.07;;;12.27;;
12038;SDS011;6080;48.818;9.526;2023-03-16T13:45:53;10.67;;;9.90;;
12038;SDS011;6080;48.818;9.526;2023-03-16T13:48:19;10.87;;;10.30;;
12038;SDS011;6080;48.818;9.526;2023-03-16T13:50:55;9.97;;;9.47;;
12038;SDS011;6080;48.818;9.526;2023-03-16T13:53:23;9.40;;;8.80;;
12038;SDS011;6080;48.818;9.526;2023-03-16T13:55:53;10.03;;;9.43;;
12038;SDS011;6080;48.818;9.526;2023-03-16T13:58:30;12.70;;;12.00;;
12038;SDS011;6080;48.818;9.526;2023-03-16T14:00:59;12.13;;;11.43;;
12038;SDS011;6080;48.818;9.526;2023-03-16T14:03:38;9.43;;;8.83;;
12038;SDS011;6080;48.818;9.526;2023-03-16T14:06:06;10.83;;;10.03;;
12038;SDS011;6080;48.818;9.526;2023-03-16T14:08:50;10.30;;;9.60;;
12038;SDS011;6080;48.818;9.526;2023-03-16T14:11:18;10.53;;;9.80;;
12038;SDS011;6080;48.818;9.526;2023-03-16T14:13:49;10.40;;;9.60;;
12038;SDS011;6080;48.818;9.526;2023-03-16T14:16:18;10.13;;;9.63;;
12038;SDS011;6080;48.818;9.526;2023-03-16T14:18:46;12.47;;;11.83;;
12038;SDS011;6080;48.818;9.526;2023-03-16T14:21:17;9.17;;;8.13;;
12038;SDS011;6080;48.818;9.526;2023-03-16T14:23:52;7.23;;;6.70;;
12038;SDS011;6080;48.818;9.526;2023-03-16T14:26:22;7.97;;;7.37;;
12038;SDS011;6080;48.818;9.526;2023-03-16T14:29:31;8.17;;;7.57;;
12038;SDS011;6080;48.818;9.526;2023-03-16T14:31:40;8.73;;;8.03;;
12038;SDS011;6080;48.818;9.526;2023-03-16T14:34:18;9.93;;;7.53;;
12038;SDS011;6080;48.818;9.526;2023-03-16T14:36:51;9.90;;;9.10;;
12038;SDS011;6080;48.818;9.526;2023-03-16T14:39:20;9.57;;;8.97;;
12038;SDS011;6080;48.818;9.526;2023-03-16T14:41:51;10.53;;;9.93;;
12038;SDS011;6080;48.818;9.526;2023-03-16T14:44:19;13.20;;;12.30;;
12038;SDS011;6080;48.818;9.526;2023-03-16T14:46:47;12.07;;;11.40;;
12038;SDS011;6080;48.818;9.526;2023-03-16T14:49:18;10.70;;;10.07;;
12038;SDS011;6080;48.818;9.526;2023-03-16T14:51:50;9.40;;;8.70;;
12038;SDS011;6080;48.818;9.526;2023-03-16T14:54:18;7.90;;;7.30;;
12038;SDS011;6080;48.818;9.526;2023-03-16T14:56:49;7.53;;;6.97;;
12038;SDS011;6080;48.818;9.526;2023-03-16T14:59:17;6.33;;;5.67;;
12038;SDS011;6080;48.818;9.526;2023-03-16T15:01:43;7.40;;;5.80;;
12038;SDS011;6080;48.818;9.526;2023-03-16T15:04:13;6.40;;;6.00;;
12038;SDS011;6080;48.818;9.526;2023-03-16T15:06:43;7.50;;;6.53;;
12038;SDS011;6080;48.818;9.526;2023-03-16T15:09:26;7.73;;;7.20;;
12038;SDS011;6080;48.818;9.526;2023-03-16T15:12:01;8.03;;;7.43;;
12038;SDS011;6080;48.818;9.526;2023-03-16T15:14:27;7.87;;;7.37;;
12038;SDS011;6080;48.818;9.526;2023-03-16T15:17:11;7.30;;;6.80;;
12038;SDS011;6080;48.818;9.526;2023-03-16T15:19:37;7.50;;;6.67;;
12038;SDS011;6080;48.818;9.526;2023-03-16T15:22:03;6.33;;;5.83;;
12038;SDS011;6080;48.818;9.526;2023-03-16T15:24:30;5.93;;;5.53;;
12038;SDS011;6080;48.818;9.526;2023-03-16T15:26:57;6.43;;;5.97;;
12038;SDS011;6080;48.818;9.526;2023-03-16T15:29:23;5.90;;;5.40;;
12038;SDS011;6080;48.818;9.526;2023-03-16T15:31:49;6.30;;;5.80;;
12038;SDS011;6080;48.818;9.526;2023-03-16T15:34:15;5.90;;;5.47;;
12038;SDS011;6080;48.818;9.526;2023-03-16T15:36:41;6.13;;;5.60;;
12038;SDS011;6080;48.818;9.526;2023-03-16T15:39:18;5.93;;;5.53;;
12038;SDS011;6080;48.818;9.526;2023-03-16T15:41:47;5.67;;;5.17;;
12038;SDS011;6080;48.818;9.526;2023-03-16T15:44:12;6.00;;;5.50;;
12038;SDS011;6080;48.818;9.526;2023-03-16T15:46:38;6.30;;;5.70;;
12038;SDS011;6080;48.818;9.526;2023-03-16T15:49:04;5.47;;;5.07;;
12038;SDS011;6080;48.818;9.526;2023-03-16T15:51:30;5.50;;;5.00;;
12038;SDS011;6080;48.818;9.526;2023-03-16T15:54:03;5.10;;;4.70;;
12038;SDS011;6080;48.818;9.526;2023-03-16T15:56:36;5.27;;;4.77;;
12038;SDS011;6080;48.818;9.526;2023-03-16T15:59:05;4.83;;;4.53;;
12038;SDS011;6080;48.818;9.526;2023-03-16T16:01:36;4.70;;;4.50;;
12038;SDS011;6080;48.818;9.526;2023-03-16T16:04:13;5.33;;;4.93;;
12038;SDS011;6080;48.818;9.526;2023-03-16T16:06:41;4.93;;;4.63;;
12038;SDS011;6080;48.818;9.526;2023-03-16T16:09:08;5.67;;;5.17;;
12038;SDS011;6080;48.818;9.526;2023-03-16T16:11:34;5.13;;;4.83;;
12038;SDS011;6080;48.818;9.526;2023-03-16T16:14:01;5.40;;;5.00;;
12038;SDS011;6080;48.818;9.526;2023-03-16T16:16:27;5.40;;;4.90;;
12038;SDS011;6080;48.818;9.526;2023-03-16T16:18:54;5.17;;;4.77;;
12038;SDS011;6080;48.818;9.526;2023-03-16T16:21:24;5.50;;;5.20;;
12038;SDS011;6080;48.818;9.526;2023-03-16T16:23:53;6.20;;;5.90;;
12038;SDS011;6080;48.818;9.526;2023-03-16T16:26:23;6.90;;;6.40;;
12038;SDS011;6080;48.818;9.526;2023-03-16T16:28:52;8.37;;;7.77;;
12038;SDS011;6080;48.818;9.526;2023-03-16T16:31:19;10.83;;;10.10;;
12038;SDS011;6080;48.818;9.526;2023-03-16T16:33:47;14.80;;;13.40;;
12038;SDS011;6080;48.818;9.526;2023-03-16T16:36:14;11.73;;;10.83;;
12038;SDS011;6080;48.818;9.526;2023-03-16T16:38:43;10.57;;;9.97;;
12038;SDS011;6080;48.818;9.526;2023-03-16T16:41:14;10.77;;;9.80;;
12038;SDS011;6080;48.818;9.526;2023-03-16T16:43:48;10.90;;;10.30;;
12038;SDS011;6080;48.818;9.526;2023-03-16T16:46:25;8.97;;;8.37;;
12038;SDS011;6080;48.818;9.526;2023-03-16T16:49:10;7.07;;;6.53;;
12038;SDS011;6080;48.818;9.526;2023-03-16T16:51:39;6.17;;;5.63;;
12038;SDS011;6080;48.818;9.526;2023-03-16T16:54:15;5.13;;;4.77;;
12038;SDS011;6080;48.818;9.526;2023-03-16T16:56:49;6.33;;;5.30;;
12038;SDS011;6080;48.818;9.526;2023-03-16T16:59:18;5.80;;;5.40;;
12038;SDS011;6080;48.818;9.526;2023-03-16T17:01:47;6.70;;;6.20;;
12038;SDS011;6080;48.818;9.526;2023-03-16T17:04:24;6.30;;;5.87;;
12038;SDS011;6080;48.818;9.526;2023-03-16T17:06:52;7.60;;;7.20;;
12038;SDS011;6080;48.818;9.526;2023-03-16T17:09:22;8.03;;;7.63;;
12038;SDS011;6080;48.818;9.526;2023-03-16T17:11:49;9.27;;;8.57;;
12038;SDS011;6080;48.818;9.526;2023-03-16T17:14:16;10.03;;;9.33;;
12038;SDS011;6080;48.818;9.526;2023-03-16T17:16:43;10.20;;;9.50;;
12038;SDS011;6080;48.818;9.526;2023-03-16T17:19:19;10.97;;;10.27;;
12038;SDS011;6080;48.818;9.526;2023-03-16T17:21:49;10.80;;;10.10;;
12038;SDS011;6080;48.818;9.526;2023-03-16T17:24:16;12.53;;;11.57;;
12038;SDS011;6080;48.818;9.526;2023-03-16T17:26:43;10.63;;;9.83;;
12038;SDS011;6080;48.818;9.526;2023-03-16T17:31:45;10.30;;;9.60;;
12038;SDS011;6080;48.818;9.526;2023-03-16T17:34:18;11.30;;;10.50;;
12038;SDS011;6080;48.818;9.526;2023-03-16T17:36:44;12.07;;;10.90;;
12038;SDS011;6080;48.818;9.526;2023-03-16T17:39:17;10.30;;;9.33;;
12038;SDS011;6080;48.818;9.526;2023-03-16T17:41:49;9.53;;;8.80;;
12038;SDS011;6080;48.818;9.526;2023-03-16T17:44:31;8.67;;;7.97;;
12038;SDS011;6080;48.818;9.526;2023-03-16T17:46:59;7.73;;;7.13;;
12038;SDS011;6080;48.818;9.526;2023-03-16T17:49:26;8.03;;;7.33;;
12038;SDS011;6080;48.818;9.526;2023-03-16T17:51:53;8.20;;;7.43;;
12038;SDS011;6080;48.818;9.526;2023-03-16T17:54:19;8.73;;;7.83;;
12038;SDS011;6080;48.818;9.526;2023-03-16T17:56:49;7.53;;;6.83;;
12038;SDS011;6080;48.818;9.526;2023-03-16T17:59:17;9.93;;;6.83;;
12038;SDS011;6080;48.818;9.526;2023-03-16T18:01:45;7.03;;;6.40;;
12038;SDS011;6080;48.818;9.526;2023-03-16T18:04:15;7.60;;;6.90;;
12038;SDS011;6080;48.818;9.526;2023-03-16T18:06:49;9.70;;;8.70;;
12038;SDS011;6080;48.818;9.526;2023-03-16T18:09:16;10.50;;;8.93;;
12038;SDS011;6080;48.818;9.526;2023-03-16T18:11:44;10.90;;;9.90;;
12038;SDS011;6080;48.818;9.526;2023-03-16T18:14:31;13.10;;;12.00;;
12038;SDS011;6080;48.818;9.526;2023-03-16T18:17:05;15.30;;;14.10;;
12038;SDS011;6080;48.818;9.526;2023-03-16T18:19:41;17.17;;;15.93;;
12038;SDS011;6080;48.818;9.526;2023-03-16T18:22:14;18.07;;;16.93;;
12038;SDS011;6080;48.818;9.526;2023-03-16T18:24:44;24.17;;;22.37;;
12038;SDS011;6080;48.818;9.526;2023-03-16T18:27:10;24.30;;;22.60;;
12038;SDS011;6080;48.818;9.526;2023-03-16T18:29:36;23.73;;;22.23;;
12038;SDS011;6080;48.818;9.526;2023-03-16T18:32:03;24.00;;;22.40;;
12038;SDS011;6080;48.818;9.526;2023-03-16T18:34:31;22.07;;;20.77;;
12038;SDS011;6080;48.818;9.526;2023-03-16T18:36:58;20.53;;;19.10;;
12038;SDS011;6080;48.818;9.526;2023-03-16T18:39:30;19.63;;;18.20;;
12038;SDS011;6080;48.818;9.526;2023-03-16T18:41:56;17.53;;;16.23;;
12038;SDS011;6080;48.818;9.526;2023-03-16T18:44:23;20.10;;;18.37;;
12038;SDS011;6080;48.818;9.526;2023-03-16T18:46:57;17.77;;;16.37;;
12038;SDS011;6080;48.818;9.526;2023-03-16T18:49:30;15.83;;;14.63;;
12038;SDS011;6080;48.818;9.526;2023-03-16T18:51:58;17.53;;;15.93;;
12038;SDS011;6080;48.818;9.526;2023-03-16T18:54:28;18.77;;;17.37;;
12038;SDS011;6080;48.818;9.526;2023-03-16T18:56:56;18.77;;;17.37;;
12038;SDS011;6080;48.818;9.526;2023-03-16T18:59:23;20.23;;;18.83;;
12038;SDS011;6080;48.818;9.526;2023-03-16T19:01:49;23.63;;;21.67;;
12038;SDS011;6080;48.818;9.526;2023-03-16T19:04:22;26.23;;;24.43;;
12038;SDS011;6080;48.818;9.526;2023-03-16T19:06:58;29.83;;;28.10;;
12038;SDS011;6080;48.818;9.526;2023-03-16T19:09:28;31.03;;;29.03;;
12038;SDS011;6080;48.818;9.526;2023-03-16T19:11:56;28.93;;;27.17;;
12038;SDS011;6080;48.818;9.526;2023-03-16T19:14:32;25.57;;;24.07;;
12038;SDS011;6080;48.818;9.526;2023-03-16T19:16:59;23.30;;;21.67;;
12038;SDS011;6080;48.818;9.526;2023-03-16T19:19:25;20.87;;;19.57;;
12038;SDS011;6080;48.818;9.526;2023-03-16T19:22:00;18.63;;;17.30;;
12038;SDS011;6080;48.818;9.526;2023-03-16T19:24:43;14.03;;;12.93;;
12038;SDS011;6080;48.818;9.526;2023-03-16T19:27:23;12.10;;;11.00;;
12038;SDS011;6080;48.818;9.526;2023-03-16T19:29:54;10.60;;;9.70;;
12038;SDS011;6080;48.818;9.526;2023-03-16T19:32:20;11.77;;;10.27;;
12038;SDS011;6080;48.818;9.526;2023-03-16T19:34:46;10.00;;;9.20;;
12038;SDS011;6080;48.818;9.526;2023-03-16T19:37:13;10.47;;;9.60;;
12038;SDS011;6080;48.818;9.526;2023-03-16T19:39:41;9.57;;;8.87;;
12038;SDS011;6080;48.818;9.526;2023-03-16T19:42:18;10.20;;;9.30;;
12038;SDS011;6080;48.818;9.526;2023-03-16T19:44:49;8.63;;;7.93;;
12038;SDS011;6080;48.818;9.526;2023-03-16T19:47:48;10.10;;;9.10;;
12038;SDS011;6080;48.818;9.526;2023-03-16T19:50:12;10.77;;;9.97;;
12038;SDS011;6080;48.818;9.526;2023-03-16T19:52:40;11.13;;;10.23;;
12038;SDS011;6080;48.818;9.526;2023-03-16T19:55:06;11.67;;;10.30;;
12038;SDS011;6080;48.818;9.526;2023-03-16T19:57:33;10.33;;;9.47;;
12038;SDS011;6080;48.818;9.526;2023-03-16T19:59:59;10.33;;;8.97;;
12038;SDS011;6080;48.818;9.526;2023-03-16T20:02:26;10.57;;;9.47;;
12038;SDS011;6080;48.818;9.526;2023-03-16T20:04:55;10.53;;;9.47;;
12038;SDS011;6080;48.818;9.526;2023-03-16T20:07:21;10.47;;;9.43;;
12038;SDS011;6080;48.818;9.526;2023-03-16T20:09:47;10.67;;;9.53;;
12038;SDS011;6080;48.818;9.526;2023-03-16T20:12:23;11.07;;;10.13;;